Time;durP1;ratioP1;P1;durP2;ratioP2;P2;SDS_P1;SDS_P2;PMS_P1;PMS_P2;Temp;Humidity;BMP_temperature;BMP_pressure;BME280_temperature;BME280_humidity;BME280_pressure;Samples;Min_cycle;Max_cycle;Signal;HPM_P1;HPM_P2
2020/12/05 00:00:59;;;;;;;22.08;16.27;;;;;;;1.19;100.00;98857.13;5014440;28;20033;-84
2020/12/05 00:03:24;;;;;;;27.60;19.13;;;;;;;1.24;100.00;98849.56;5021352;28;20041;-86
2020/12/05 00:05:49;;;;;;;26.75;17.60;;;;;;;1.24;100.00;98836.38;5048227;28;20044;-82
2020/12/05 00:08:15;;;;;;;25.70;17.52;;;;;;;1.27;100.00;98846.63;5040404;28;20049;-84
2020/12/05 00:10:40;;;;;;;25.23;18.77;;;;;;;1.24;100.00;98862.78;5047599;28;20052;-83
2020/12/05 00:13:06;;;;;;;26.50;19.40;;;;;;;1.23;100.00;98858.47;5033117;28;20104;-84
2020/12/05 00:15:31;;;;;;;26.15;19.08;;;;;;;1.26;100.00;98855.50;5051321;28;20056;-85
2020/12/05 00:17:56;;;;;;;33.10;22.80;;;;;;;1.28;100.00;98851.75;5030024;28;20068;-84
2020/12/05 00:20:22;;;;;;;27.95;20.33;;;;;;;1.33;100.00;98853.94;5024858;28;20045;-86
2020/12/05 00:22:47;;;;;;;29.38;20.38;;;;;;;1.33;100.00;98859.22;5033461;28;20558;-83
2020/12/05 00:25:13;;;;;;;28.50;19.67;;;;;;;1.35;100.00;98860.75;5032878;28;20047;-84
2020/12/05 00:27:38;;;;;;;28.23;19.60;;;;;;;1.35;100.00;98870.44;5050172;28;20044;-83
2020/12/05 00:30:04;;;;;;;26.00;19.90;;;;;;;1.34;100.00;98877.56;5037925;28;20047;-85
2020/12/05 00:32:29;;;;;;;29.92;21.17;;;;;;;1.34;100.00;98885.50;5059266;28;20051;-85
2020/12/05 00:34:55;;;;;;;28.88;19.42;;;;;;;1.29;100.00;98881.63;5044768;28;20048;-84
2020/12/05 00:37:31;;;;;;;27.63;20.05;;;;;;;1.29;100.00;98884.28;5037428;28;20044;-85
2020/12/05 00:39:57;;;;;;;26.90;20.02;;;;;;;1.30;100.00;98883.31;5041843;28;20393;-82
2020/12/05 00:42:22;;;;;;;30.95;21.88;;;;;;;1.30;100.00;98892.06;5044004;28;20029;-84
2020/12/05 00:44:50;;;;;;;26.75;20.60;;;;;;;1.29;100.00;98897.50;5039832;28;20045;-84
2020/12/05 00:47:16;;;;;;;31.33;23.02;;;;;;;1.29;100.00;98895.69;5035493;28;20037;-85
2020/12/05 00:49:42;;;;;;;32.88;23.83;;;;;;;1.35;100.00;98903.03;5043626;28;20049;-83
2020/12/05 00:52:07;;;;;;;32.10;23.65;;;;;;;1.35;100.00;98896.88;5043285;28;20128;-84
2020/12/05 00:54:33;;;;;;;32.22;22.15;;;;;;;1.39;100.00;98903.53;5038589;28;20087;-85
2020/12/05 00:56:58;;;;;;;35.78;23.83;;;;;;;1.39;100.00;98902.72;5029712;28;20483;-86
2020/12/05 00:59:24;;;;;;;31.15;22.20;;;;;;;1.43;100.00;98899.59;5033603;28;20094;-82
2020/12/05 01:01:54;;;;;;;29.13;21.10;;;;;;;1.44;100.00;98901.28;5048601;28;20065;-82
2020/12/05 01:04:20;;;;;;;30.50;22.08;;;;;;;1.43;100.00;98898.78;5035428;28;20477;-84
2020/12/05 01:06:46;;;;;;;32.80;22.92;;;;;;;1.44;100.00;98893.34;5046681;28;20499;-82
2020/12/05 01:09:11;;;;;;;33.38;24.10;;;;;;;1.44;100.00;98880.13;5029965;28;20048;-85
2020/12/05 01:11:37;;;;;;;37.42;26.63;;;;;;;1.47;100.00;98882.47;5035589;28;20041;-84
2020/12/05 01:14:03;;;;;;;43.17;29.67;;;;;;;1.56;100.00;98891.31;5060180;28;20040;-84
2020/12/05 01:16:30;;;;;;;36.80;24.98;;;;;;;1.56;100.00;98889.47;5048977;28;20037;-82
2020/12/05 01:18:56;;;;;;;35.25;24.85;;;;;;;1.54;100.00;98880.88;5046856;28;20041;-85
2020/12/05 01:21:23;;;;;;;34.60;25.20;;;;;;;1.50;100.00;98870.78;5032223;28;20087;-84
2020/12/05 01:23:48;;;;;;;33.25;25.17;;;;;;;1.48;100.00;98876.19;5035102;28;20557;-82
2020/12/05 01:26:14;;;;;;;35.00;25.45;;;;;;;1.51;100.00;98881.19;5026696;28;20049;-86
2020/12/05 01:28:39;;;;;;;34.42;25.38;;;;;;;1.50;100.00;98868.94;5021654;28;20099;-86
2020/12/05 01:31:05;;;;;;;35.20;24.05;;;;;;;1.51;100.00;98875.88;5020427;28;20519;-82
2020/12/05 01:33:31;;;;;;;31.75;22.35;;;;;;;1.50;100.00;98873.41;5025684;28;20503;-84
2020/12/05 01:35:58;;;;;;;35.85;25.73;;;;;;;1.52;100.00;98866.97;5043435;28;20522;-83
2020/12/05 01:38:24;;;;;;;34.45;25.00;;;;;;;1.53;100.00;98867.81;5037729;28;20041;-86
2020/12/05 01:40:54;;;;;;;33.55;24.17;;;;;;;1.50;100.00;98866.31;5058751;28;20030;-85
2020/12/05 01:43:20;;;;;;;34.88;25.42;;;;;;;1.52;100.00;98866.13;5041702;28;20033;-86
2020/12/05 01:45:50;;;;;;;34.42;25.23;;;;;;;1.51;100.00;98869.78;5060798;28;20055;-85
2020/12/05 01:48:19;;;;;;;;;;;;;;;1.54;100.00;98880.88;5039160;28;20033;-85
2020/12/05 01:50:45;;;;;;;32.03;23.73;;;;;;;1.44;100.00;98880.13;5038800;28;20004;-85
2020/12/05 01:53:15;;;;;;;34.10;25.65;;;;;;;1.45;100.00;98880.97;5038747;28;20049;-87
2020/12/05 01:55:46;;;;;;;33.55;25.73;;;;;;;1.39;100.00;98885.03;5039034;28;20045;-87
2020/12/05 01:58:13;;;;;;;34.30;24.85;;;;;;;1.38;100.00;98895.75;5024045;28;20557;-83
2020/12/05 02:00:39;;;;;;;35.72;24.98;;;;;;;1.42;100.00;98902.41;5024400;28;20077;-86
2020/12/05 02:03:05;;;;;;;35.67;26.33;;;;;;;1.46;100.00;98909.88;5020039;28;20092;-81
2020/12/05 02:05:38;;;;;;;34.80;26.30;;;;;;;1.49;100.00;98917.50;5021899;28;20045;-84
2020/12/05 02:08:13;;;;;;;40.25;27.90;;;;;;;1.48;100.00;98931.72;5038738;28;20043;-84
2020/12/05 02:10:43;;;;;;;33.70;25.75;;;;;;;1.48;100.00;98928.25;5043493;28;20059;-82
2020/12/05 02:13:30;;;;;;;38.33;25.85;;;;;;;1.45;100.00;98929.38;5038607;28;20045;-82
2020/12/05 02:15:58;;;;;;;37.63;26.35;;;;;;;1.54;100.00;98932.91;5045136;28;20410;-84
2020/12/05 02:18:25;;;;;;;36.92;27.58;;;;;;;1.56;100.00;98929.13;5024055;28;20557;-82
2020/12/05 02:20:55;;;;;;;35.70;24.73;;;;;;;1.60;100.00;98931.47;5031675;28;20048;-83
2020/12/05 02:23:21;;;;;;;33.60;24.85;;;;;;;1.59;100.00;98930.66;5017970;28;20040;-82
2020/12/05 02:25:54;;;;;;;33.28;24.67;;;;;;;1.58;100.00;98929.81;5017288;28;20049;-85
2020/12/05 02:28:22;;;;;;;33.63;25.15;;;;;;;1.55;100.00;98938.06;5021043;28;20038;-82
2020/12/05 02:30:47;;;;;;;35.47;25.27;;;;;;;1.55;100.00;98937.22;5025237;28;20525;-84
2020/12/05 02:33:13;;;;;;;38.25;26.65;;;;;;;1.56;100.00;98942.38;5024862;28;20042;-82
2020/12/05 02:35:39;;;;;;;36.97;26.65;;;;;;;1.54;100.00;98939.03;5033050;28;20049;-83
2020/12/05 02:38:17;;;;;;;38.70;26.65;;;;;;;1.60;100.00;98936.75;5042426;28;20048;-85
2020/12/05 02:40:42;;;;;;;41.58;27.30;;;;;;;1.61;100.00;98933.13;5055467;28;20094;-83
2020/12/05 02:43:08;;;;;;;32.65;24.60;;;;;;;1.58;100.00;98929.81;5042195;28;20049;-83
2020/12/05 02:45:34;;;;;;;35.08;24.70;;;;;;;1.51;100.00;98928.75;5037428;28;20044;-87
2020/12/05 02:48:01;;;;;;;35.35;25.23;;;;;;;1.55;100.00;98924.00;5044379;28;20036;-85
2020/12/05 02:50:27;;;;;;;34.95;25.67;;;;;;;1.52;100.00;98937.50;5038766;28;20498;-86
2020/12/05 02:52:54;;;;;;;32.42;23.80;;;;;;;1.43;100.00;98938.44;5034894;28;20221;-85
2020/12/05 02:55:20;;;;;;;31.65;23.45;;;;;;;1.38;100.00;98944.16;5027098;28;20438;-85
2020/12/05 02:57:48;;;;;;;34.55;24.00;;;;;;;1.40;100.00;98933.44;5025680;28;20460;-85
2020/12/05 03:00:13;;;;;;;31.70;22.17;;;;;;;1.34;100.00;98938.34;5020238;28;20026;-84
2020/12/05 03:02:39;;;;;;;28.88;22.15;;;;;;;1.29;100.00;98934.50;5004422;28;20583;-84
2020/12/05 03:05:05;;;;;;;30.52;21.55;;;;;;;1.26;100.00;98940.06;5024577;28;20033;-83
2020/12/05 03:07:32;;;;;;;30.23;22.17;;;;;;;1.22;100.00;98934.28;5042503;28;20041;-85
2020/12/05 03:09:58;;;;;;;33.92;23.50;;;;;;;1.21;100.00;98937.03;5046694;28;20049;-84
2020/12/05 03:12:29;;;;;;;34.25;24.90;;;;;;;1.20;100.00;98943.31;5026969;28;20041;-83
2020/12/05 03:14:56;;;;;;;33.33;24.92;;;;;;;1.21;100.00;98942.34;5003297;28;20032;-82
2020/12/05 03:17:21;;;;;;;36.63;27.23;;;;;;;1.19;100.00;98944.31;5038782;28;20049;-84
2020/12/05 03:19:47;;;;;;;40.95;28.55;;;;;;;1.26;100.00;98942.72;5033334;28;20044;-82
2020/12/05 03:22:12;;;;;;;37.53;27.27;;;;;;;1.29;100.00;98953.00;5047813;28;20446;-84
2020/12/05 03:24:38;;;;;;;35.30;26.35;;;;;;;1.33;100.00;98943.81;5045479;28;20731;-83
2020/12/05 03:27:03;;;;;;;35.47;26.55;;;;;;;1.35;100.00;98947.09;5048065;28;20045;-84
2020/12/05 03:29:29;;;;;;;32.58;24.77;;;;;;;1.34;100.00;98950.72;5063725;28;20132;-82
2020/12/05 03:34:22;;;;;;;36.20;26.30;;;;;;;1.32;100.00;98942.97;5042840;28;20132;-85
2020/12/05 03:36:48;;;;;;;32.00;25.63;;;;;;;1.36;100.00;98940.84;5048637;28;20048;-83
2020/12/05 03:39:13;;;;;;;34.28;25.08;;;;;;;1.38;100.00;98938.03;5051244;28;20510;-84
2020/12/05 03:41:40;;;;;;;35.22;26.73;;;;;;;1.39;100.00;98932.63;5046793;28;20057;-82
2020/12/05 03:44:06;;;;;;;36.50;26.77;;;;;;;1.41;100.00;98943.03;5047304;28;20057;-83
2020/12/05 03:46:31;;;;;;;33.33;26.42;;;;;;;1.39;100.00;98945.84;5045129;28;20037;-86
2020/12/05 03:48:58;;;;;;;33.83;25.50;;;;;;;1.34;100.00;98951.56;5048190;28;20049;-84
2020/12/05 03:51:26;;;;;;;38.17;26.52;;;;;;;1.33;100.00;98952.56;5049953;28;20049;-85
2020/12/05 03:53:53;;;;;;;34.97;27.63;;;;;;;1.35;100.00;98955.03;5041089;28;20033;-82
2020/12/05 03:56:19;;;;;;;35.53;26.15;;;;;;;1.35;100.00;98950.59;5044555;28;20556;-85
2020/12/05 03:58:45;;;;;;;37.53;27.45;;;;;;;1.37;100.00;98962.81;5046389;28;20048;-82
2020/12/05 04:01:12;;;;;;;38.83;27.88;;;;;;;1.38;100.00;98965.28;5049859;28;20037;-82
2020/12/05 04:03:37;;;;;;;36.53;27.80;;;;;;;1.35;100.00;98966.47;5041685;28;20518;-84
2020/12/05 04:06:05;;;;;;;38.47;28.35;;;;;;;1.39;100.00;98964.34;5023967;28;20138;-86
2020/12/05 04:08:31;;;;;;;37.10;28.23;;;;;;;1.40;100.00;98970.44;5040041;28;20118;-84
2020/12/05 04:10:57;;;;;;;40.03;28.70;;;;;;;1.38;100.00;98967.13;5049547;28;20599;-85
2020/12/05 04:13:23;;;;;;;42.20;30.17;;;;;;;1.42;100.00;98969.31;5014923;28;20034;-82
2020/12/05 04:15:49;;;;;;;41.03;30.33;;;;;;;1.43;100.00;98970.97;5024964;28;20033;-85
2020/12/05 04:18:15;;;;;;;40.40;29.08;;;;;;;1.40;100.00;98973.09;5026746;28;20048;-83
2020/12/05 04:20:41;;;;;;;40.55;29.20;;;;;;;1.36;100.00;98975.22;5027999;28;20073;-84
2020/12/05 04:23:07;;;;;;;39.45;29.30;;;;;;;1.38;100.00;98975.88;5035011;28;20065;-84
2020/12/05 04:25:33;;;;;;;42.45;31.23;;;;;;;1.37;100.00;98978.69;5012674;28;20095;-83
2020/12/05 04:27:58;;;;;;;46.00;32.70;;;;;;;1.39;100.00;98971.44;4993360;28;20045;-83
2020/12/05 04:30:24;;;;;;;48.08;33.22;;;;;;;1.41;100.00;98975.59;5033137;28;20045;-84
2020/12/05 04:32:49;;;;;;;45.53;33.10;;;;;;;1.45;100.00;98979.59;5045538;28;20117;-85
2020/12/05 04:35:15;;;;;;;47.78;32.30;;;;;;;1.44;100.00;98980.59;5035317;28;20045;-84
2020/12/05 04:37:40;;;;;;;46.47;32.55;;;;;;;1.44;100.00;98979.72;5046227;28;20041;-83
2020/12/05 04:40:06;;;;;;;41.75;30.90;;;;;;;1.41;100.00;98980.88;5036702;28;20513;-83
2020/12/05 04:42:31;;;;;;;39.08;29.48;;;;;;;1.38;100.00;98977.69;5049640;28;20042;-86
2020/12/05 04:44:58;;;;;;;37.25;29.00;;;;;;;1.38;100.00;98975.88;5060127;28;20410;-83
2020/12/05 04:47:25;;;;;;;39.00;29.00;;;;;;;1.38;100.00;98980.34;5044645;28;20033;-84
2020/12/05 04:49:56;;;;;;;38.20;28.63;;;;;;;1.39;100.00;98980.19;5061448;28;20497;-84
2020/12/05 04:52:40;;;;;;;43.08;29.02;;;;;;;1.43;100.00;98983.38;5039829;28;20124;-82
2020/12/05 04:55:08;;;;;;;43.10;30.10;;;;;;;1.43;100.00;98981.53;5042389;28;20032;-84
2020/12/05 04:57:45;;;;;;;41.30;29.77;;;;;;;1.46;100.00;98973.31;5040264;28;20119;-84
2020/12/05 05:00:11;;;;;;;38.42;28.45;;;;;;;1.45;100.00;98978.75;5056832;28;20045;-83
2020/12/05 05:02:41;;;;;;;40.78;29.60;;;;;;;1.47;100.00;98975.00;5037659;28;20542;-83
2020/12/05 05:05:12;;;;;;;42.83;29.05;;;;;;;1.48;100.00;98976.66;5025576;28;20033;-83
2020/12/05 05:07:50;;;;;;;42.75;30.55;;;;;;;1.50;100.00;98972.06;5037293;28;20045;-83
2020/12/05 05:10:26;;;;;;;43.38;32.20;;;;;;;1.50;100.00;98977.34;5039069;28;20048;-86
2020/12/05 05:13:12;;;;;;;44.60;30.85;;;;;;;1.50;100.00;98972.06;5017287;28;20399;-81
2020/12/05 05:15:37;;;;;;;43.90;30.88;;;;;;;1.49;100.00;98970.38;5030335;28;20506;-85
2020/12/05 05:18:04;;;;;;;40.47;30.08;;;;;;;1.49;100.00;98978.31;5040991;28;20045;-84
2020/12/05 05:20:43;;;;;;;39.67;28.85;;;;;;;1.44;100.00;98980.59;5041488;28;20403;-83
2020/12/05 05:23:15;;;;;;;43.38;30.80;;;;;;;1.45;100.00;98987.53;5035411;28;20057;-84
2020/12/05 05:25:57;;;;;;;48.03;34.25;;;;;;;1.52;100.00;98993.03;5038662;28;20104;-85
2020/12/05 05:28:26;;;;;;;46.20;31.50;;;;;;;1.52;100.00;98995.69;5036750;28;20519;-83
2020/12/05 05:31:41;;;;;;;48.38;33.03;;;;;;;1.56;100.00;99003.16;5043644;28;20052;-85
2020/12/05 05:34:07;;;;;;;47.67;35.38;;;;;;;1.60;100.00;99006.34;5028628;28;20033;-85
2020/12/05 05:36:32;;;;;;;47.28;34.35;;;;;;;1.64;100.00;99009.50;5039795;28;20403;-85
2020/12/05 05:39:07;;;;;;;49.58;36.50;;;;;;;1.66;100.00;99010.19;5057371;28;20446;-84
2020/12/05 05:41:36;;;;;;;47.60;34.38;;;;;;;1.68;100.00;99011.72;5042155;28;20048;-83
2020/12/05 05:44:02;;;;;;;50.20;37.00;;;;;;;1.72;100.00;99009.59;5042744;28;20039;-85
2020/12/05 05:46:31;;;;;;;54.35;37.20;;;;;;;1.75;100.00;99019.84;5046457;28;20116;-86
2020/12/05 05:48:57;;;;;;;;;;;;;;;1.78;100.00;99020.41;5030703;28;20076;-85
2020/12/05 05:51:40;;;;;;;54.28;39.25;;;;;;;1.72;100.00;99028.09;5048312;28;19996;-85
2020/12/05 05:54:23;;;;;;;49.60;37.17;;;;;;;1.74;100.00;99032.25;5026363;28;20044;-85
2020/12/05 05:57:11;;;;;;;55.42;39.40;;;;;;;1.75;100.00;99036.56;5036221;28;20053;-83
2020/12/05 05:59:38;;;;;;;63.22;46.33;;;;;;;1.84;100.00;99034.81;5027254;28;20567;-83
2020/12/05 06:02:05;;;;;;;61.28;45.17;;;;;;;1.87;100.00;99039.84;5033542;28;20165;-83
2020/12/05 06:04:39;;;;;;;60.67;44.17;;;;;;;1.89;100.00;99027.25;5022994;28;20167;-83
2020/12/05 06:07:07;;;;;;;59.58;43.70;;;;;;;1.91;100.00;99027.94;5026114;28;20116;-85
2020/12/05 06:09:51;;;;;;;56.15;41.88;;;;;;;1.97;100.00;99023.88;5041031;28;20048;-84
2020/12/05 06:12:35;;;;;;;55.72;41.05;;;;;;;1.96;100.00;99024.88;5055987;28;20183;-85
2020/12/05 06:15:02;;;;;;;54.70;39.72;;;;;;;1.92;100.00;99026.13;5006401;28;20061;-86
2020/12/05 06:17:28;;;;;;;52.47;38.42;;;;;;;1.89;100.00;99029.91;5032838;28;20129;-83
2020/12/05 06:19:55;;;;;;;52.40;38.38;;;;;;;1.90;100.00;99030.72;5023173;28;20132;-86
2020/12/05 06:22:50;;;;;;;56.60;40.55;;;;;;;1.85;100.00;99048.91;5010497;28;20041;-85
2020/12/05 06:25:18;;;;;;;56.22;39.60;;;;;;;1.86;100.00;99056.66;5023968;28;20045;-83
2020/12/05 06:27:49;;;;;;;57.15;41.95;;;;;;;1.92;100.00;99063.16;5040977;28;20045;-85
2020/12/05 06:30:15;;;;;;;55.75;41.80;;;;;;;1.97;100.00;99056.44;5029662;28;20491;-86
2020/12/05 06:32:43;;;;;;;55.85;41.40;;;;;;;2.01;100.00;99063.13;5037646;28;20060;-86
2020/12/05 06:35:17;;;;;;;56.67;40.78;;;;;;;2.00;100.00;99071.19;5041567;28;20132;-85
2020/12/05 06:37:43;;;;;;;54.00;40.13;;;;;;;2.01;100.00;99068.41;5027321;28;20515;-84
2020/12/05 06:40:08;;;;;;;61.33;41.45;;;;;;;2.02;100.00;99075.34;5026057;28;20042;-84
2020/12/05 06:42:44;;;;;;;56.88;41.75;;;;;;;2.02;100.00;99077.16;5039201;28;20053;-84
2020/12/05 06:45:28;;;;;;;59.30;39.95;;;;;;;2.04;100.00;99072.53;5034432;28;20046;-83
2020/12/05 06:48:18;;;;;;;59.15;39.45;;;;;;;2.00;100.00;99093.19;5043338;28;20118;-84
2020/12/05 06:50:46;;;;;;;53.03;39.78;;;;;;;2.02;100.00;99087.75;5042208;28;20404;-84
2020/12/05 06:53:20;;;;;;;55.43;39.13;;;;;;;2.02;100.00;99093.03;5043714;28;20056;-84
2020/12/05 06:55:47;;;;;;;54.50;37.83;;;;;;;2.02;100.00;99091.22;5063516;28;20509;-84
2020/12/05 06:58:13;;;;;;;59.17;40.58;;;;;;;2.06;100.00;99101.50;5050953;28;20048;-83
2020/12/05 07:00:40;;;;;;;54.05;38.65;;;;;;;2.07;100.00;99103.97;5058635;28;20970;-83
2020/12/05 07:03:10;;;;;;;55.75;40.00;;;;;;;2.05;100.00;99102.50;5065510;28;20037;-85
2020/12/05 07:05:45;;;;;;;56.03;39.63;;;;;;;2.05;100.00;99115.72;5044792;28;20116;-84
2020/12/05 07:08:23;;;;;;;58.40;40.45;;;;;;;2.07;100.00;99125.16;5047494;28;20602;-85
2020/12/05 07:10:50;;;;;;;57.13;40.45;;;;;;;2.03;100.00;99129.91;5049772;28;20440;-84
2020/12/05 07:13:17;;;;;;;55.22;39.67;;;;;;;1.97;100.00;99135.00;5046625;28;20053;-83
2020/12/05 07:15:43;;;;;;;54.72;38.88;;;;;;;1.95;100.00;99142.22;5043994;28;20045;-85
2020/12/05 07:18:17;;;;;;;52.22;38.90;;;;;;;1.98;100.00;99142.75;5064240;28;20049;-84
2020/12/05 07:20:43;;;;;;;54.90;40.22;;;;;;;1.99;100.00;99157.66;5042489;28;20060;-83
2020/12/05 07:23:08;;;;;;;54.85;39.63;;;;;;;1.95;100.00;99158.94;5042578;28;20075;-83
2020/12/05 07:25:34;;;;;;;53.45;38.92;;;;;;;1.93;100.00;99171.50;5041150;28;20046;-82
2020/12/05 07:28:01;;;;;;;54.88;40.03;;;;;;;1.99;100.00;99176.19;5029806;28;20040;-83
2020/12/05 07:30:26;;;;;;;62.10;42.55;;;;;;;2.06;100.00;99176.41;5042984;28;20064;-84
2020/12/05 07:32:52;;;;;;;63.42;45.75;;;;;;;2.14;100.00;99187.09;5052938;28;20483;-84
2020/12/05 07:35:18;;;;;;;58.70;43.45;;;;;;;2.23;100.00;99191.47;5041815;28;20400;-83
2020/12/05 07:37:45;;;;;;;56.67;41.35;;;;;;;2.26;100.00;99193.00;5048725;28;20052;-83
2020/12/05 07:40:11;;;;;;;59.15;40.90;;;;;;;2.32;100.00;99202.16;5051028;28;20086;-83
2020/12/05 07:42:39;;;;;;;55.03;39.80;;;;;;;2.35;100.00;99207.16;5047795;28;20040;-83
2020/12/05 07:45:12;;;;;;;57.47;39.63;;;;;;;2.33;100.00;99202.03;5042905;28;20042;-84
2020/12/05 07:47:39;;;;;;;54.15;38.17;;;;;;;2.38;100.00;99212.16;5041486;28;20488;-84
2020/12/05 07:50:10;;;;;;;56.15;38.97;;;;;;;2.43;100.00;99216.00;5052417;28;20041;-82
2020/12/05 07:52:39;;;;;;;54.17;35.80;;;;;;;2.42;100.00;99213.53;5034174;28;20036;-85
2020/12/05 07:55:06;;;;;;;55.72;37.42;;;;;;;2.44;100.00;99215.00;5045680;28;20045;-83
2020/12/05 07:57:34;;;;;;;52.22;36.55;;;;;;;2.43;100.00;99228.41;5035219;28;20495;-83
2020/12/05 08:00:13;;;;;;;52.42;36.00;;;;;;;2.46;100.00;99236.88;5045289;28;20402;-84
2020/12/05 08:02:45;;;;;;;;;;;;;;;2.55;100.00;99244.91;5046308;28;20055;-85
2020/12/05 08:05:29;;;;;;;52.92;33.05;;;;;;;2.53;100.00;99258.28;5050665;28;20289;-84
2020/12/05 08:08:01;;;;;;;57.20;35.95;;;;;;;2.58;100.00;99255.22;5038989;28;20064;-87
2020/12/05 08:10:31;;;;;;;53.80;36.05;;;;;;;2.64;100.00;99265.19;5060120;28;20411;-87
2020/12/05 08:13:18;;;;;;;60.00;36.47;;;;;;;2.66;100.00;99281.78;5046911;28;20055;-82
2020/12/05 08:15:50;;;;;;;50.58;32.15;;;;;;;2.65;100.00;99288.06;5040871;28;20541;-84
2020/12/05 08:18:19;;;;;;;52.65;34.83;;;;;;;2.71;100.00;99290.13;5038115;28;20053;-85
2020/12/05 08:20:46;;;;;;;47.58;31.55;;;;;;;2.75;100.00;99295.94;5032579;28;20107;-85
2020/12/05 08:23:24;;;;;;;48.05;30.30;;;;;;;2.77;100.00;99300.09;5048220;28;20395;-83
2020/12/05 08:25:52;;;;;;;46.20;31.90;;;;;;;2.81;100.00;99309.41;5042334;28;20041;-82
2020/12/05 08:28:20;;;;;;;47.30;30.80;;;;;;;2.81;100.00;99303.28;5048791;28;20032;-83
2020/12/05 08:30:47;;;;;;;46.05;30.38;;;;;;;2.86;100.00;99308.97;5037708;28;20045;-83
2020/12/05 08:33:14;;;;;;;48.97;28.92;;;;;;;2.86;100.00;99301.84;5052983;28;20051;-84
2020/12/05 08:35:40;;;;;;;44.72;29.58;;;;;;;2.88;100.00;99307.84;5053573;28;20061;-82
2020/12/05 08:38:06;;;;;;;46.35;27.15;;;;;;;2.91;100.00;99309.34;5042146;28;20040;-86
2020/12/05 08:40:32;;;;;;;42.72;25.95;;;;;;;2.93;100.00;99318.81;5047229;28;20041;-84
2020/12/05 08:42:57;;;;;;;41.35;24.90;;;;;;;2.97;100.00;99329.94;5038298;28;20430;-84
2020/12/05 08:45:23;;;;;;;39.97;24.65;;;;;;;3.02;100.00;99332.97;5042474;28;20491;-83
2020/12/05 08:47:53;;;;;;;30.75;20.85;;;;;;;3.07;100.00;99335.16;5049322;28;20095;-85
2020/12/05 08:50:23;;;;;;;39.95;23.92;;;;;;;3.14;100.00;99345.00;5048234;28;20059;-84
2020/12/05 08:52:52;;;;;;;34.97;22.90;;;;;;;3.15;100.00;99340.53;5033599;28;20033;-86
2020/12/05 08:55:20;;;;;;;33.97;21.83;;;;;;;3.20;100.00;99346.22;5064207;28;20052;-85
2020/12/05 08:58:00;;;;;;;33.42;20.92;;;;;;;3.24;100.00;99347.56;5045075;28;20077;-86
2020/12/05 09:00:27;;;;;;;31.00;20.50;;;;;;;3.27;100.00;99352.56;5049497;28;20035;-82
2020/12/05 09:02:53;;;;;;;32.97;22.10;;;;;;;3.34;100.00;99352.81;5044418;28;20044;-86
2020/12/05 09:05:20;;;;;;;32.17;19.05;;;;;;;3.35;100.00;99350.00;5044109;28;20037;-83
2020/12/05 09:07:59;;;;;;;30.73;18.65;;;;;;;3.39;100.00;99351.38;5036990;28;20050;-83
2020/12/05 09:10:27;;;;;;;26.30;19.35;;;;;;;3.43;100.00;99345.75;5041334;28;20034;-83
2020/12/05 09:13:03;;;;;;;29.88;18.70;;;;;;;3.44;100.00;99344.75;5027330;28;20057;-83
2020/12/05 09:15:28;;;;;;;25.85;18.02;;;;;;;3.47;100.00;99352.41;5046357;28;20041;-82
2020/12/05 09:17:57;;;;;;;27.05;17.92;;;;;;;3.49;100.00;99361.88;5051347;28;20053;-83
2020/12/05 09:20:23;;;;;;;23.90;17.10;;;;;;;3.53;100.00;99368.53;5043735;28;20495;-83
2020/12/05 09:22:51;;;;;;;24.63;16.73;;;;;;;3.56;100.00;99367.38;5047469;28;20052;-84
2020/12/05 09:25:32;;;;;;;29.58;18.00;;;;;;;3.68;100.00;99376.75;5044115;28;20116;-85
2020/12/05 09:27:59;;;;;;;23.77;15.43;;;;;;;3.71;100.00;99365.88;5034633;28;20053;-83
2020/12/05 09:30:26;;;;;;;25.40;16.95;;;;;;;3.72;100.00;99367.53;5041041;28;20041;-83
2020/12/05 09:32:53;;;;;;;22.83;16.30;;;;;;;3.82;100.00;99373.53;5039394;28;20048;-85
2020/12/05 09:35:21;;;;;;;22.90;15.98;;;;;;;3.87;100.00;99373.09;5044192;28;20059;-84
2020/12/05 09:37:48;;;;;;;22.60;17.27;;;;;;;3.91;100.00;99377.09;5037098;28;20053;-84
2020/12/05 09:40:16;;;;;;;25.30;16.30;;;;;;;3.98;100.00;99387.94;5038156;28;20148;-84
2020/12/05 09:42:43;;;;;;;21.15;15.32;;;;;;;4.02;100.00;99381.31;5038089;28;20119;-84
2020/12/05 09:45:10;;;;;;;22.88;14.68;;;;;;;4.07;100.00;99381.69;5060896;28;20153;-84
2020/12/05 09:47:36;;;;;;;25.92;15.38;;;;;;;4.11;99.99;99388.31;5044314;28;20492;-83
2020/12/05 09:50:03;;;;;;;21.27;14.02;;;;;;;4.12;98.96;99381.22;5015421;28;20079;-85
2020/12/05 09:52:28;;;;;;;18.25;13.23;;;;;;;4.12;98.67;99384.69;5041505;28;20133;-83
2020/12/05 09:54:54;;;;;;;22.77;13.77;;;;;;;4.14;97.91;99377.41;5013319;28;20551;-85
2020/12/05 09:57:19;;;;;;;18.85;14.15;;;;;;;4.14;97.42;99380.03;5028951;28;20056;-84
2020/12/05 09:59:45;;;;;;;18.27;13.57;;;;;;;4.17;97.36;99382.41;5030912;28;20929;-84
2020/12/05 10:02:11;;;;;;;20.70;14.30;;;;;;;4.24;97.68;99378.13;5014377;28;20395;-83
2020/12/05 10:04:38;;;;;;;19.35;14.02;;;;;;;4.28;96.96;99384.78;5027624;28;20308;-83
2020/12/05 10:07:04;;;;;;;18.65;13.23;;;;;;;4.28;96.35;99389.25;5036474;28;20065;-83
2020/12/05 10:09:29;;;;;;;20.92;12.98;;;;;;;4.36;96.70;99391.13;5040359;28;20135;-85
2020/12/05 10:11:55;;;;;;;21.15;13.48;;;;;;;4.42;96.36;99393.16;5048314;28;20037;-84
2020/12/05 10:14:20;;;;;;;22.05;13.00;;;;;;;4.46;96.15;99397.13;5030698;28;20048;-83
2020/12/05 10:16:45;;;;;;;16.27;12.88;;;;;;;4.49;95.48;99399.50;5049754;28;20037;-84
2020/12/05 10:19:11;;;;;;;17.13;11.90;;;;;;;4.56;95.07;99392.56;5063285;28;20486;-84
2020/12/05 10:21:37;;;;;;;20.85;13.02;;;;;;;4.63;94.79;99388.28;5038665;28;20509;-85
2020/12/05 10:24:02;;;;;;;18.40;12.05;;;;;;;4.66;94.70;99395.06;5032091;28;20044;-83
2020/12/05 10:26:28;;;;;;;18.67;12.10;;;;;;;4.72;94.42;99397.94;5026832;28;20391;-83
2020/12/05 10:28:53;;;;;;;20.58;12.18;;;;;;;4.79;93.61;99394.63;5058029;28;20065;-85
2020/12/05 10:31:19;;;;;;;20.08;11.88;;;;;;;4.83;92.52;99388.00;5047865;28;20200;-85
2020/12/05 10:33:44;;;;;;;18.35;10.38;;;;;;;4.90;92.14;99389.03;5064037;28;20043;-85
2020/12/05 10:36:10;;;;;;;17.17;11.35;;;;;;;4.97;91.44;99382.88;5024116;28;20033;-83
2020/12/05 10:38:35;;;;;;;13.85;9.27;;;;;;;4.98;90.08;99387.22;5054303;28;20470;-84
2020/12/05 10:41:01;;;;;;;13.90;8.93;;;;;;;5.06;90.07;99388.22;5032584;28;20183;-84
2020/12/05 10:43:26;;;;;;;13.57;8.98;;;;;;;5.08;89.34;99403.03;5047708;28;20094;-85
2020/12/05 10:45:52;;;;;;;12.95;8.90;;;;;;;5.16;89.44;99405.69;5042647;28;20045;-84
2020/12/05 10:48:17;;;;;;;11.77;8.10;;;;;;;5.25;88.62;99411.03;5044071;28;20041;-84
2020/12/05 10:50:42;;;;;;;13.43;8.27;;;;;;;5.30;88.93;99409.56;5043660;28;20102;-84
2020/12/05 10:53:08;;;;;;;12.40;7.90;;;;;;;5.31;88.00;99397.06;5063488;28;20059;-86
2020/12/05 10:55:33;;;;;;;16.70;9.27;;;;;;;5.35;88.13;99399.25;5021965;28;20581;-84
2020/12/05 10:57:59;;;;;;;11.25;6.88;;;;;;;5.40;87.92;99386.28;5037392;28;20056;-85
2020/12/05 11:00:24;;;;;;;12.18;8.15;;;;;;;5.48;88.11;99398.75;5060227;28;20038;-84
2020/12/05 11:02:52;;;;;;;10.75;7.25;;;;;;;5.47;86.98;99407.75;5043383;28;20045;-84
2020/12/05 11:05:17;;;;;;;10.20;7.18;;;;;;;5.46;86.36;99415.88;5026526;28;20045;-85
2020/12/05 11:07:49;;;;;;;10.13;7.07;;;;;;;5.48;86.09;99409.41;5026503;28;20056;-84
2020/12/05 11:10:15;;;;;;;13.68;6.38;;;;;;;5.51;86.40;99402.91;5025296;28;20110;-84
2020/12/05 11:12:49;;;;;;;8.63;5.95;;;;;;;5.57;86.23;99413.72;5038109;28;20172;-85
2020/12/05 11:15:14;;;;;;;9.43;6.13;;;;;;;5.59;84.77;99425.03;5041784;28;20045;-85
2020/12/05 11:17:39;;;;;;;9.77;6.25;;;;;;;5.65;85.66;99421.72;5011743;28;20060;-84
2020/12/05 11:20:05;;;;;;;8.90;5.18;;;;;;;5.73;84.61;99433.38;5045147;28;20037;-85
2020/12/05 11:22:30;;;;;;;7.28;4.68;;;;;;;5.64;83.31;99438.69;5046063;28;20088;-84
2020/12/05 11:25:02;;;;;;;7.80;5.15;;;;;;;5.78;84.52;99441.69;5047189;28;20132;-84
2020/12/05 11:27:28;;;;;;;6.85;4.70;;;;;;;5.91;83.70;99439.34;5052805;28;20033;-86